West Line, Missouri
Current Conditions -  °F | °C
As of 12:53 PM on Thursday 30 Oct 2014 (Local Time) from KOJC Reporting Station
Clear Clear  
Wind Chill: 66°   Ceiling: Unl
Heat Index: 66°   Visibility: 10mi
Dew Point: 40°   Wind: 15mph
Humidity: 38%   Direction: 340°NNW
Pressure: 30.01"   Gusts: NA
Location:  38.653°N, 94.5715°W
Report Text: KOJC 301753Z 34013KT 10SM CLR 19/04 A3001 RMK AO2 SLP161 60001 T01890044 10189 20083 57001
Loading
Personal Weather Stations






























Interactive Weather Map
Tropical Storm Tracking
New forecast layout! Learn more

10-Day Weather Forecast

Advertisements
Track Severe Weather on mobile